createdAt,value
2018-06-09T00:02:26.915Z,97659.59
2018-06-09T00:04:56.088Z,97658.80
2018-06-09T00:07:25.267Z,97656.49
2018-06-09T00:09:54.213Z,97652.87
2018-06-09T00:12:23.391Z,97652.87
2018-06-09T00:14:52.564Z,97651.64
2018-06-09T00:17:21.747Z,97661.04
2018-06-09T00:19:50.927Z,97666.72
2018-06-09T00:22:20.104Z,97664.52
2018-06-09T00:24:49.279Z,97661.41
2018-06-09T00:27:18.468Z,97662.47
2018-06-09T00:29:47.640Z,97661.58
2018-06-09T00:32:16.840Z,97658.87
2018-06-09T00:34:46.016Z,97658.45
2018-06-09T00:37:15.188Z,97659.13
2018-06-09T00:39:44.371Z,97651.62
2018-06-09T00:42:13.544Z,97646.96
2018-06-09T00:44:42.728Z,97644.53
2018-06-09T00:47:11.904Z,97644.53
2018-06-09T00:49:41.096Z,97650.81
2018-06-09T00:52:10.309Z,97640.63
2018-06-09T00:54:39.255Z,97642.26
2018-06-09T00:57:08.428Z,97642.26
2018-06-09T00:59:37.597Z,97647.14
2018-06-09T01:02:06.770Z,97647.45
2018-06-09T01:04:35.928Z,97641.00
2018-06-09T01:07:05.484Z,97648.02
2018-06-09T01:09:34.413Z,97646.21
2018-06-09T01:12:03.555Z,97650.84
2018-06-09T01:14:32.717Z,97651.45
2018-06-09T01:17:01.860Z,97660.07
2018-06-09T01:19:31.016Z,97658.22
2018-06-09T01:22:00.159Z,97658.54
2018-06-09T01:24:29.321Z,97663.27
2018-06-09T01:26:58.471Z,97661.36
2018-06-09T01:29:27.613Z,97663.00
2018-06-09T01:31:56.750Z,97657.31
2018-06-09T01:34:25.907Z,97666.02
2018-06-09T01:36:55.125Z,97661.01
2018-06-09T01:39:24.271Z,97663.45
2018-06-09T01:41:53.423Z,97662.22
2018-06-09T01:44:22.571Z,97657.79
2018-06-09T01:46:51.724Z,97652.29
2018-06-09T01:49:20.667Z,97657.99
2018-06-09T01:51:49.832Z,97660.88
2018-06-09T01:54:19.012Z,97664.41
2018-06-09T01:56:48.188Z,97666.49
2018-06-09T01:59:17.360Z,97666.74
2018-06-09T02:01:46.536Z,97661.36
2018-06-09T02:04:15.710Z,97655.58
2018-06-09T02:06:44.891Z,97647.36
2018-06-09T02:09:14.075Z,97655.17
2018-06-09T02:11:43.260Z,97649.59
2018-06-09T02:14:12.437Z,97641.03
2018-06-09T02:16:41.616Z,97644.52
2018-06-09T02:19:10.784Z,97646.13
2018-06-09T02:21:39.968Z,97641.03
2018-06-09T02:24:09.140Z,97642.31
2018-06-09T02:26:38.320Z,97638.02
2018-06-09T02:29:07.496Z,97636.62
2018-06-09T02:31:36.677Z,97636.28
2018-06-09T02:34:05.987Z,97628.10
2018-06-09T02:36:35.152Z,97628.46
2018-06-09T02:39:06.517Z,97628.69
2018-06-09T02:41:35.716Z,97638.44
2018-06-09T02:44:04.897Z,97645.34
2018-06-09T02:46:34.073Z,97647.73
2018-06-09T02:49:03.269Z,97647.59
2018-06-09T02:51:32.446Z,97639.20
2018-06-09T02:54:01.620Z,97647.73
2018-06-09T02:56:30.806Z,97649.26
2018-06-09T02:58:59.980Z,97649.90
2018-06-09T03:01:29.155Z,97650.65
2018-06-09T03:03:58.339Z,97648.20
2018-06-09T03:06:27.512Z,97642.97
2018-06-09T03:08:56.692Z,97649.26
2018-06-09T03:11:25.879Z,97654.86
2018-06-09T03:13:55.056Z,97658.13
2018-06-09T03:16:24.244Z,97657.91
2018-06-09T03:18:53.429Z,97656.14
2018-06-09T03:21:22.615Z,97656.06
2018-06-09T03:23:51.789Z,97663.75
2018-06-09T03:26:20.968Z,97664.61
2018-06-09T03:28:49.905Z,97663.82
2018-06-09T03:31:19.089Z,97665.28
2018-06-09T03:33:48.260Z,97668.52
2018-06-09T03:36:17.440Z,97674.98
2018-06-09T03:38:46.621Z,97681.59
2018-06-09T03:41:15.801Z,97674.72
2018-06-09T03:43:44.968Z,97676.70
2018-06-09T03:46:14.153Z,97677.61
2018-06-09T03:48:43.339Z,97682.75
2018-06-09T03:51:12.516Z,97685.75
2018-06-09T03:53:41.692Z,97690.60
2018-06-09T03:56:10.873Z,97687.88
2018-06-09T03:58:40.052Z,97681.80
2018-06-09T04:01:09.220Z,97691.55
2018-06-09T04:03:38.405Z,97685.97
2018-06-09T04:06:07.591Z,97690.64
2018-06-09T04:08:36.772Z,97688.36
2018-06-09T04:11:05.976Z,97694.99
2018-06-09T04:13:35.147Z,97685.17
2018-06-09T04:16:04.340Z,97687.79
2018-06-09T04:18:33.524Z,97689.36
2018-06-09T04:21:02.702Z,97692.87
2018-06-09T04:23:31.892Z,97701.02
2018-06-09T04:26:01.072Z,97704.53
2018-06-09T04:28:30.259Z,97716.28
2018-06-09T04:31:00.244Z,97715.74
2018-06-09T04:33:29.427Z,97709.83
2018-06-09T04:35:58.592Z,97702.05
2018-06-09T04:38:27.539Z,97703.80
2018-06-09T04:40:56.769Z,97705.78
2018-06-09T04:43:25.957Z,97707.58
2018-06-09T04:45:55.133Z,97712.45
2018-06-09T04:48:24.328Z,97713.23
2018-06-09T04:50:53.504Z,97706.75
2018-06-09T04:53:22.688Z,97712.51
2018-06-09T04:55:51.867Z,97716.41
2018-06-09T04:58:20.813Z,97719.16
2018-06-09T05:00:50.001Z,97728.90
2018-06-09T05:03:19.176Z,97734.95
2018-06-09T05:05:48.356Z,97730.83
2018-06-09T05:08:17.535Z,97730.86
2018-06-09T05:10:46.728Z,97734.30
2018-06-09T05:13:15.900Z,97730.13
2018-06-09T05:15:45.125Z,97730.73
2018-06-09T05:18:14.248Z,97732.52
2018-06-09T05:20:43.431Z,97741.27
2018-06-09T05:23:12.608Z,97731.17
2018-06-09T05:25:41.796Z,97729.02
2018-06-09T05:28:10.975Z,97723.14
2018-06-09T05:30:40.154Z,97723.89
2018-06-09T05:33:09.336Z,97714.13
2018-06-09T05:35:38.520Z,97717.17
2018-06-09T05:38:07.963Z,97718.17
2018-06-09T05:40:37.156Z,97714.77
2018-06-09T05:43:06.332Z,97718.30
2018-06-09T05:45:35.520Z,97719.30
2018-06-09T05:48:04.696Z,97714.78
2018-06-09T05:50:33.840Z,97716.44
2018-06-09T05:53:02.992Z,97723.39
2018-06-09T05:55:32.147Z,97718.77
2018-06-09T05:58:01.295Z,97728.05
2018-06-09T06:00:30.215Z,97721.70
2018-06-09T06:02:59.408Z,97724.35
2018-06-09T06:05:28.519Z,97725.53
2018-06-09T06:07:57.672Z,97725.95
2018-06-09T06:10:26.849Z,97727.32
2018-06-09T06:12:56.028Z,97733.60
2018-06-09T06:15:25.204Z,97733.44
2018-06-09T06:17:54.384Z,97731.43
2018-06-09T06:20:23.556Z,97731.69
2018-06-09T06:22:52.503Z,97723.50
2018-06-09T06:25:21.683Z,97721.35
2018-06-09T06:27:50.866Z,97721.51
2018-06-09T06:30:20.070Z,97730.75
2018-06-09T06:32:49.252Z,97726.88
2018-06-09T06:35:18.432Z,97731.11
2018-06-09T06:37:47.383Z,97734.05
2018-06-09T06:40:16.558Z,97732.22
2018-06-09T06:42:45.735Z,97733.44
2018-06-09T06:45:14.923Z,97732.03
2018-06-09T06:47:44.096Z,97733.88
2018-06-09T06:50:13.319Z,97729.75
2018-06-09T06:52:42.480Z,97733.47
2018-06-09T06:55:11.664Z,97731.73
2018-06-09T06:57:40.844Z,97733.88
2018-06-09T07:00:10.036Z,97744.35
2018-06-09T07:02:39.204Z,97743.92
2018-06-09T07:05:08.391Z,97736.24
2018-06-09T07:07:37.567Z,97737.09
2018-06-09T07:10:06.756Z,97744.59
2018-06-09T07:12:35.930Z,97744.22
2018-06-09T07:15:05.401Z,97742.03
2018-06-09T07:17:34.342Z,97742.39
2018-06-09T07:20:03.624Z,97745.39
2018-06-09T07:22:32.836Z,97746.92
2018-06-09T07:25:02.005Z,97750.42
2018-06-09T07:27:31.184Z,97757.81
2018-06-09T07:30:00.372Z,97757.55
2018-06-09T07:32:29.315Z,97753.20
2018-06-09T07:34:58.500Z,97758.92
2018-06-09T07:37:27.677Z,97755.97
2018-06-09T07:39:56.848Z,97764.28
2018-06-09T07:42:26.032Z,97756.67
2018-06-09T07:44:55.213Z,97751.14
2018-06-09T07:47:24.400Z,97748.48
2018-06-09T07:49:53.587Z,97750.92
2018-06-09T07:52:22.768Z,97749.41
2018-06-09T07:54:51.940Z,97752.79
2018-06-09T07:57:20.891Z,97749.95
2018-06-09T07:59:50.060Z,97749.91
2018-06-09T08:02:20.478Z,97752.89
2018-06-09T08:04:49.648Z,97749.58
2018-06-09T08:07:18.884Z,97741.19
2018-06-09T08:09:48.082Z,97738.13
2018-06-09T08:12:17.261Z,97738.91
2018-06-09T08:14:46.440Z,97743.27
2018-06-09T08:17:15.385Z,97740.25
2018-06-09T08:19:45.145Z,97736.83
2018-06-09T08:22:14.103Z,97733.95
2018-06-09T08:24:43.316Z,97731.67
2018-06-09T08:27:12.523Z,97731.72
2018-06-09T08:29:41.721Z,97729.23
2018-06-09T08:32:10.908Z,97730.83
2018-06-09T08:34:40.132Z,97718.44
2018-06-09T08:37:09.336Z,97723.43
2018-06-09T08:39:38.549Z,97726.34
2018-06-09T08:42:07.816Z,97716.59
2018-06-09T08:44:36.973Z,97714.56
2018-06-09T08:47:06.188Z,97719.03
2018-06-09T08:49:35.385Z,97709.98
2018-06-09T08:52:04.435Z,97710.80
2018-06-09T08:54:33.693Z,97710.97
2018-06-09T08:57:02.849Z,97710.48
2018-06-09T08:59:32.066Z,97711.69
2018-06-09T09:02:01.307Z,97718.28
2018-06-09T09:04:30.270Z,97714.48
2018-06-09T09:06:59.468Z,97716.50
2018-06-09T09:09:28.729Z,97720.59
2018-06-09T09:11:57.882Z,97716.88
2018-06-09T09:14:26.833Z,97717.58
2018-06-09T09:16:56.021Z,97720.55
2018-06-09T09:19:25.216Z,97723.67
2018-06-09T09:21:54.412Z,97719.86
2018-06-09T09:24:23.630Z,97719.92
2018-06-09T09:26:52.820Z,97716.39
2018-06-09T09:29:22.008Z,97719.69
2018-06-09T09:31:51.224Z,97718.34
2018-06-09T09:34:20.425Z,97718.72
2018-06-09T09:36:49.607Z,97716.38
2018-06-09T09:39:18.812Z,97720.38
2018-06-09T09:41:48.010Z,97717.91
2018-06-09T09:44:17.221Z,97705.88
2018-06-09T09:46:46.421Z,97710.88
2018-06-09T09:49:15.618Z,97707.34
2018-06-09T09:51:44.846Z,97712.98
2018-06-09T09:54:14.118Z,97707.52
2018-06-09T09:56:43.346Z,97707.55
2018-06-09T09:59:12.558Z,97709.23
2018-06-09T10:01:41.765Z,97706.62
2018-06-09T10:04:10.986Z,97706.22
2018-06-09T10:06:40.192Z,97704.77
2018-06-09T10:09:09.599Z,97699.21
2018-06-09T10:11:38.800Z,97699.44
2018-06-09T10:14:07.992Z,97691.63
2018-06-09T10:16:37.198Z,97692.70
2018-06-09T10:19:06.985Z,97677.66
2018-06-09T10:21:36.305Z,97684.22
2018-06-09T10:24:05.521Z,97679.69
2018-06-09T10:26:34.754Z,97676.17
2018-06-09T10:29:03.976Z,97671.59
2018-06-09T10:31:33.220Z,97680.53
2018-06-09T10:34:02.393Z,97680.99
2018-06-09T10:36:31.620Z,97673.93
2018-06-09T10:39:01.559Z,97668.27
2018-06-09T10:41:30.829Z,97670.81
2018-06-09T10:43:59.819Z,97671.27
2018-06-09T10:46:28.809Z,97670.70
2018-06-09T10:48:58.022Z,97667.97
2018-06-09T10:51:26.976Z,97664.01
2018-06-09T10:53:56.200Z,97665.45
2018-06-09T10:56:28.544Z,97670.70
2018-06-09T10:58:58.301Z,97657.75
2018-06-09T11:01:28.074Z,97662.51
2018-06-09T11:03:57.867Z,97658.05
2018-06-09T11:06:27.652Z,97649.81
2018-06-09T11:08:57.358Z,97651.16
2018-06-09T11:11:27.063Z,97651.08
2018-06-09T11:13:56.794Z,97644.14
2018-06-09T11:16:26.427Z,97641.77
2018-06-09T11:18:56.161Z,97632.39
2018-06-09T11:21:25.825Z,97633.09
2018-06-09T11:23:55.624Z,97634.55
2018-06-09T11:26:25.329Z,97635.31
2018-06-09T11:28:55.080Z,97631.73
2018-06-09T11:31:24.762Z,97633.53
2018-06-09T11:33:54.453Z,97634.65
2018-06-09T11:36:24.174Z,97627.23
2018-06-09T11:38:53.792Z,97631.58
2018-06-09T11:41:23.371Z,97630.90
2018-06-09T11:43:53.561Z,97634.77
2018-06-09T11:46:23.190Z,97627.52
2018-06-09T11:48:52.639Z,97622.68
2018-06-09T11:51:22.153Z,97609.86
2018-06-09T11:53:51.704Z,97613.20
2018-06-09T11:56:21.378Z,97604.30
2018-06-09T11:58:50.954Z,97606.30
2018-06-09T12:01:20.443Z,97611.80
2018-06-09T12:03:50.044Z,97606.50
2018-06-09T12:06:19.645Z,97605.55
2018-06-09T12:08:49.275Z,97610.45
2018-06-09T12:11:18.823Z,97604.29
2018-06-09T12:13:48.361Z,97609.39
2018-06-09T12:16:17.999Z,97610.66
2018-06-09T12:18:47.565Z,97609.63
2018-06-09T12:21:17.121Z,97603.13
2018-06-09T12:23:46.759Z,97589.52
2018-06-09T12:26:16.104Z,97592.19
2018-06-09T12:28:45.633Z,97596.61
2018-06-09T12:31:15.159Z,97592.19
2018-06-09T12:33:44.782Z,97588.45
2018-06-09T12:36:14.036Z,97588.84
2018-06-09T12:38:43.602Z,97591.17
2018-06-09T12:41:13.021Z,97587.17
2018-06-09T12:43:42.493Z,97582.47
2018-06-09T12:46:11.969Z,97587.38
2018-06-09T12:48:41.547Z,97582.63
2018-06-09T12:51:11.083Z,97586.34
2018-06-09T12:53:40.688Z,97582.37
2018-06-09T12:56:10.301Z,97588.83
2018-06-09T12:58:39.964Z,97585.75
2018-06-09T13:01:09.813Z,97587.36
2018-06-09T13:03:39.446Z,97577.05
2018-06-09T13:06:09.080Z,97576.38
2018-06-09T13:08:38.721Z,97570.22
2018-06-09T13:11:08.383Z,97563.73
2018-06-09T13:13:37.975Z,97556.14
2018-06-09T13:16:07.610Z,97553.33
2018-06-09T13:18:37.244Z,97552.09
2018-06-09T13:21:06.989Z,97551.44
2018-06-09T13:23:36.512Z,97556.13
2018-06-09T13:26:06.126Z,97562.86
2018-06-09T13:28:35.669Z,97549.71
2018-06-09T13:31:05.188Z,97553.05
2018-06-09T13:33:34.841Z,97554.51
2018-06-09T13:36:04.456Z,97551.56
2018-06-09T13:38:34.010Z,97553.30
2018-06-09T13:41:03.586Z,97547.37
2018-06-09T13:43:33.185Z,97544.59
2018-06-09T13:46:02.767Z,97544.93
2018-06-09T13:48:31.945Z,97543.86
2018-06-09T13:51:01.454Z,97547.85
2018-06-09T13:53:30.794Z,97547.05
2018-06-09T13:56:00.389Z,97533.28
2018-06-09T13:58:29.920Z,97534.77
2018-06-09T14:00:59.604Z,97541.13
2018-06-09T14:03:28.867Z,97540.41
2018-06-09T14:05:58.423Z,97551.17
2018-06-09T14:08:28.099Z,97551.11
2018-06-09T14:10:58.858Z,97546.94
2018-06-09T14:13:28.400Z,97548.27
2018-06-09T14:15:57.985Z,97541.53
2018-06-09T14:18:27.544Z,97543.76
2018-06-09T14:20:57.127Z,97547.41
2018-06-09T14:23:26.734Z,97551.82
2018-06-09T14:25:56.432Z,97554.46
2018-06-09T14:28:26.053Z,97546.31
2018-06-09T14:30:55.749Z,97549.66
2018-06-09T14:33:25.416Z,97541.06
2018-06-09T14:35:54.731Z,97533.45
2018-06-09T14:38:24.344Z,97540.28
2018-06-09T14:40:53.935Z,97548.66
2018-06-09T14:43:23.218Z,97553.03
2018-06-09T14:45:52.723Z,97558.61
2018-06-09T14:48:22.295Z,97558.41
2018-06-09T14:50:51.933Z,97560.78
2018-06-09T14:53:21.565Z,97571.61
2018-06-09T14:55:50.869Z,97568.08
2018-06-09T14:58:20.533Z,97575.17
2018-06-09T15:00:49.793Z,97563.50
2018-06-09T15:03:19.315Z,97564.45
2018-06-09T15:05:48.903Z,97577.94
2018-06-09T15:08:18.469Z,97576.16
2018-06-09T15:10:48.145Z,97579.61
2018-06-09T15:13:17.719Z,97576.80
2018-06-09T15:15:47.322Z,97576.38
2018-06-09T15:18:16.877Z,97570.02
2018-06-09T15:20:46.500Z,97566.66
2018-06-09T15:23:16.123Z,97566.50
2018-06-09T15:25:45.374Z,97571.34
2018-06-09T15:28:14.998Z,97566.45
2018-06-09T15:30:44.538Z,97577.27
2018-06-09T15:33:14.103Z,97573.64
2018-06-09T15:35:43.635Z,97584.03
2018-06-09T15:38:13.280Z,97593.98
2018-06-09T15:40:42.835Z,97601.00
2018-06-09T15:43:12.417Z,97611.96
2018-06-09T15:45:41.937Z,97644.48
2018-06-09T15:48:11.494Z,97671.75
2018-06-09T15:50:41.129Z,97672.18
2018-06-09T15:53:10.744Z,97686.88
2018-06-09T15:55:40.420Z,97691.58
2018-06-09T15:58:10.146Z,97693.44
2018-06-09T16:00:39.789Z,97715.52
2018-06-09T16:03:09.359Z,97728.34
2018-06-09T16:05:38.565Z,97727.61
2018-06-09T16:08:07.743Z,97726.62
2018-06-09T16:10:37.033Z,97731.88
2018-06-09T16:13:06.248Z,97747.00
2018-06-09T16:15:35.430Z,97743.59
2018-06-09T16:18:04.620Z,97740.66
2018-06-09T16:20:33.824Z,97744.33
2018-06-09T16:23:03.002Z,97736.12
2018-06-09T16:25:32.259Z,97742.22
2018-06-09T16:28:01.404Z,97739.42
2018-06-09T16:30:30.347Z,97747.92
2018-06-09T16:32:59.521Z,97754.20
2018-06-09T16:35:28.701Z,97754.83
2018-06-09T16:37:57.882Z,97750.45
2018-06-09T16:40:27.052Z,97742.60
2018-06-09T16:42:56.225Z,97742.34
2018-06-09T16:45:25.411Z,97752.41
2018-06-09T16:47:54.590Z,97749.66
2018-06-09T16:50:23.789Z,97750.32
2018-06-09T16:52:52.741Z,97748.28
2018-06-09T16:55:21.935Z,97740.64
2018-06-09T16:57:51.108Z,97738.72
2018-06-09T17:00:20.329Z,97739.47
2018-06-09T17:02:52.013Z,97733.80
2018-06-09T17:05:21.363Z,97729.56
2018-06-09T17:07:50.665Z,97719.27
2018-06-09T17:10:19.886Z,97713.34
2018-06-09T17:12:49.106Z,97715.39
2018-06-09T17:15:18.305Z,97708.38
2018-06-09T17:17:47.521Z,97698.52
2018-06-09T17:20:16.725Z,97691.08
2018-06-09T17:22:45.998Z,97692.63
2018-06-09T17:25:15.164Z,97689.54
2018-06-09T17:27:45.489Z,97690.92
2018-06-09T17:30:14.703Z,97681.33
2018-06-09T17:32:43.913Z,97673.19
2018-06-09T17:35:13.117Z,97670.95
2018-06-09T17:37:42.317Z,97661.77
2018-06-09T17:40:11.284Z,97643.91
2018-06-09T17:42:40.518Z,97637.69
2018-06-09T17:45:09.743Z,97631.55
2018-06-09T17:47:38.967Z,97625.95
2018-06-09T17:50:08.208Z,97622.84
2018-06-09T17:52:39.213Z,97623.31
2018-06-09T17:55:08.678Z,97626.92
2018-06-09T17:57:38.133Z,97637.16
2018-06-09T18:00:07.418Z,97638.62
2018-06-09T18:02:36.722Z,97642.56
2018-06-09T18:05:05.985Z,97641.05
2018-06-09T18:07:35.170Z,97635.45
2018-06-09T18:10:04.372Z,97640.94
2018-06-09T18:12:33.554Z,97631.37
2018-06-09T18:15:03.422Z,97627.59
2018-06-09T18:17:32.653Z,97621.81
2018-06-09T18:20:01.637Z,97628.49
2018-06-09T18:22:30.821Z,97631.95
2018-06-09T18:25:00.010Z,97625.71
2018-06-09T18:27:29.180Z,97627.92
2018-06-09T18:29:58.357Z,97643.31
2018-06-09T18:32:27.525Z,97648.77
2018-06-09T18:34:56.747Z,97667.17
2018-06-09T18:37:25.913Z,97684.98
2018-06-09T18:39:55.117Z,97696.64
2018-06-09T18:42:24.305Z,97705.16
2018-06-09T18:44:53.493Z,97708.41
2018-06-09T18:47:22.695Z,97710.25
2018-06-09T18:49:52.062Z,97716.34
2018-06-09T18:52:21.232Z,97704.77
2018-06-09T18:54:50.420Z,97716.01
2018-06-09T18:57:19.608Z,97721.84
2018-06-09T18:59:48.867Z,97720.78
2018-06-09T19:02:18.024Z,97722.01
2018-06-09T19:04:47.205Z,97717.31
2018-06-09T19:07:16.156Z,97713.16
2018-06-09T19:09:45.414Z,97712.75
2018-06-09T19:12:14.589Z,97716.70
2018-06-09T19:14:43.537Z,97718.67
2018-06-09T19:17:12.713Z,97720.42
2018-06-09T19:19:41.888Z,97727.68
2018-06-09T19:22:11.114Z,97728.17
2018-06-09T19:24:40.034Z,97733.56
2018-06-09T19:27:09.208Z,97739.23
2018-06-09T19:29:38.442Z,97745.66
2018-06-09T19:32:07.685Z,97748.69
2018-06-09T19:34:36.848Z,97751.38
2018-06-09T19:37:06.057Z,97768.09
2018-06-09T19:39:34.983Z,97765.30
2018-06-09T19:42:04.180Z,97768.17
2018-06-09T19:44:33.352Z,97767.41
2018-06-09T19:47:02.585Z,97774.73
2018-06-09T19:49:31.761Z,97774.63
2018-06-09T19:52:01.027Z,97772.56
2018-06-09T19:54:30.153Z,97777.85
2018-06-09T19:56:59.337Z,97779.19
2018-06-09T19:59:28.516Z,97777.91
2018-06-09T20:01:57.804Z,97774.25
2018-06-09T20:04:26.985Z,97778.70
2018-06-09T20:06:56.212Z,97783.59
2018-06-09T20:09:25.397Z,97785.31
2018-06-09T20:11:54.587Z,97787.02
2018-06-09T20:14:23.786Z,97780.49
2018-06-09T20:16:52.965Z,97785.22
2018-06-09T20:19:22.195Z,97784.07
2018-06-09T20:21:51.365Z,97781.00
2018-06-09T20:24:20.551Z,97781.52
2018-06-09T20:26:49.722Z,97782.70
2018-06-09T20:29:18.915Z,97790.50
2018-06-09T20:31:48.082Z,97781.69
2018-06-09T20:34:17.033Z,97781.78
2018-06-09T20:36:46.205Z,97783.47
2018-06-09T20:39:15.391Z,97776.27
2018-06-09T20:41:44.564Z,97778.98
2018-06-09T20:44:13.516Z,97780.39
2018-06-09T20:46:42.689Z,97780.00
2018-06-09T20:49:11.897Z,97783.60
2018-06-09T20:51:41.108Z,97785.13
2018-06-09T20:54:10.304Z,97786.62
2018-06-09T20:56:39.508Z,97795.53
2018-06-09T20:59:08.719Z,97795.73
2018-06-09T21:01:37.913Z,97803.53
2018-06-09T21:04:07.130Z,97806.00
2018-06-09T21:06:36.317Z,97810.00
2018-06-09T21:09:07.909Z,97807.43
2018-06-09T21:11:37.168Z,97805.92
2018-06-09T21:14:06.360Z,97802.48
2018-06-09T21:16:35.558Z,97799.91
2018-06-09T21:19:05.236Z,97802.55
2018-06-09T21:21:34.456Z,97796.84
2018-06-09T21:24:03.643Z,97796.79
2018-06-09T21:26:38.257Z,97796.79
2018-06-09T21:29:12.506Z,97799.68
2018-06-09T21:31:45.127Z,97798.31
2018-06-09T21:34:36.026Z,97796.01
2018-06-09T21:37:10.315Z,97795.83
2018-06-09T21:39:44.769Z,97789.97
2018-06-09T21:42:19.388Z,97780.20
2018-06-09T21:44:52.769Z,97774.75
2018-06-09T21:47:21.735Z,97771.62
2018-06-09T21:49:50.940Z,97779.51
2018-06-09T21:52:20.220Z,97775.70
2018-06-09T21:54:49.453Z,97774.50
2018-06-09T21:57:18.669Z,97769.69
2018-06-09T21:59:47.632Z,97768.06
2018-06-09T22:02:16.823Z,97774.39
2018-06-09T22:04:46.162Z,97771.28
2018-06-09T22:07:15.301Z,97768.31
2018-06-09T22:09:44.496Z,97761.06
2018-06-09T22:12:13.693Z,97765.54
2018-06-09T22:14:42.897Z,97770.17
2018-06-09T22:17:12.096Z,97767.76
2018-06-09T22:19:41.316Z,97764.61
2018-06-09T22:22:10.553Z,97765.81
2018-06-09T22:24:39.713Z,97774.47
2018-06-09T22:27:08.921Z,97773.64
2018-06-09T22:29:37.898Z,97778.40
2018-06-09T22:32:07.106Z,97780.18
2018-06-09T22:34:36.305Z,97781.82
2018-06-09T22:37:05.522Z,97783.02
2018-06-09T22:39:34.717Z,97788.66
2018-06-09T22:42:03.929Z,97784.71
2018-06-09T22:44:33.136Z,97796.77
2018-06-09T22:47:02.391Z,97791.88
2018-06-09T22:49:31.584Z,97791.35
2018-06-09T22:52:00.775Z,97798.95
2018-06-09T22:54:29.993Z,97796.69
2018-06-09T22:56:58.968Z,97796.56
2018-06-09T22:59:28.160Z,97795.33
2018-06-09T23:01:57.350Z,97802.69
2018-06-09T23:04:26.553Z,97799.83
2018-06-09T23:06:55.747Z,97797.94
2018-06-09T23:09:24.957Z,97793.38
2018-06-09T23:11:54.143Z,97791.19
2018-06-09T23:14:23.379Z,97799.67
2018-06-09T23:16:52.340Z,97799.72
2018-06-09T23:19:21.548Z,97802.36
2018-06-09T23:21:50.748Z,97799.63
2018-06-09T23:24:20.028Z,97799.67
2018-06-09T23:26:49.233Z,97799.09
2018-06-09T23:29:18.436Z,97799.42
2018-06-09T23:31:47.625Z,97797.48
2018-06-09T23:34:16.818Z,97792.76
2018-06-09T23:36:46.004Z,97784.16
2018-06-09T23:39:15.225Z,97786.42
2018-06-09T23:41:44.503Z,97779.80
2018-06-09T23:44:13.716Z,97784.19
2018-06-09T23:46:42.909Z,97777.36
2018-06-09T23:49:12.112Z,97772.77
2018-06-09T23:51:41.324Z,97767.76
2018-06-09T23:54:10.549Z,97763.45
2018-06-09T23:56:39.743Z,97768.92
2018-06-09T23:59:09.077Z,97764.86
